createdAt,value
2022-08-04T00:01:10.216Z,101083.16
2022-08-04T00:03:44.840Z,101082.34
2022-08-04T00:06:18.155Z,101080.63
2022-08-04T00:08:49.851Z,101080.91
2022-08-04T00:11:22.660Z,101083.84
2022-08-04T00:14:02.537Z,101081.13
2022-08-04T00:16:37.551Z,101077.59
2022-08-04T00:19:11.276Z,101076.78
2022-08-04T00:21:43.421Z,101072.31
2022-08-04T00:24:13.915Z,101072.44
2022-08-04T00:26:42.568Z,101069.78
2022-08-04T00:29:11.924Z,101067.13
2022-08-04T00:31:55.090Z,101072.59
2022-08-04T00:34:27.082Z,101078.28
2022-08-04T00:36:55.703Z,101074.56
2022-08-04T00:39:23.852Z,101073.72
2022-08-04T00:42:12.049Z,101070.19
2022-08-04T00:44:52.924Z,101067.44
2022-08-04T00:47:40.392Z,101070.19
2022-08-04T00:50:11.027Z,101062.19
2022-08-04T00:52:53.665Z,101062.28
2022-08-04T00:55:42.352Z,101057.78
2022-08-04T00:58:30.337Z,101066.19
2022-08-04T01:01:03.719Z,101058.19
2022-08-04T01:03:47.011Z,101055.66
2022-08-04T01:06:25.786Z,101052.16
2022-08-04T01:09:07.049Z,101049.63
2022-08-04T01:11:58.303Z,101043.59
2022-08-04T01:14:51.160Z,101045.63
2022-08-04T01:17:26.569Z,101041.44
2022-08-04T01:20:02.344Z,101042.59
2022-08-04T01:22:59.422Z,101038.13
2022-08-04T01:25:56.266Z,101030.22
2022-08-04T01:28:43.051Z,101032.94
2022-08-04T01:31:21.683Z,101034.91
2022-08-04T01:34:02.994Z,101028.66
2022-08-04T01:36:36.023Z,101030.63
2022-08-04T01:39:25.870Z,101025.25
2022-08-04T01:41:57.928Z,101025.91
2022-08-04T01:44:29.597Z,101016.75
2022-08-04T01:47:01.445Z,101013.81
2022-08-04T01:49:40.129Z,101019.19
2022-08-04T01:52:11.622Z,101013.56
2022-08-04T01:54:43.204Z,101010.63
2022-08-04T01:57:38.527Z,101012.19
2022-08-04T02:00:01.025Z,101013.03
2022-08-04T02:02:30.352Z,101014.91
2022-08-04T02:04:58.210Z,101009.44
2022-08-04T02:07:41.498Z,101006.78
2022-08-04T02:10:16.112Z,101012.25
2022-08-04T02:12:57.091Z,101013.25
2022-08-04T02:15:29.960Z,101007.88
2022-08-04T02:18:04.474Z,101008.16
2022-08-04T02:20:35.949Z,101007.41
2022-08-04T02:23:06.392Z,101010.88
2022-08-04T02:25:38.924Z,101000.97
2022-08-04T02:28:16.343Z,100995.50
2022-08-04T02:30:51.615Z,100990.81
2022-08-04T02:33:25.362Z,100987.31
2022-08-04T02:35:58.242Z,100991.00
2022-08-04T02:38:43.826Z,100997.34
2022-08-04T02:41:12.373Z,100986.31
2022-08-04T02:43:51.386Z,100987.31
2022-08-04T02:46:22.063Z,100982.06
2022-08-04T02:48:53.611Z,100980.28
2022-08-04T02:51:25.481Z,100973.25
2022-08-04T02:53:56.045Z,100983.44
2022-08-04T02:56:24.974Z,100976.09
2022-08-04T02:58:57.506Z,100971.72
2022-08-04T03:01:25.351Z,100973.56
2022-08-04T03:04:13.608Z,100968.38
2022-08-04T03:07:20.537Z,100963.88
2022-08-04T03:10:05.897Z,100963.97
2022-08-04T03:12:59.015Z,100964.09
2022-08-04T03:15:56.368Z,100966.03
2022-08-04T03:18:59.054Z,100961.53
2022-08-04T03:21:53.716Z,100957.25
2022-08-04T03:24:43.805Z,100956.56
2022-08-04T03:27:19.502Z,100958.53
2022-08-04T03:30:06.563Z,100959.69
2022-08-04T03:33:15.380Z,100961.63
2022-08-04T03:36:31.701Z,100962.72
2022-08-04T03:39:35.485Z,100966.44
2022-08-04T03:42:35.204Z,100960.28
2022-08-04T03:45:37.564Z,100948.69
2022-08-04T03:48:14.634Z,100948.88
2022-08-04T03:51:35.975Z,100954.59
2022-08-04T03:54:31.631Z,100951.41
2022-08-04T03:57:31.584Z,100952.66
2022-08-04T04:00:09.962Z,100951.00
2022-08-04T04:03:10.777Z,100943.97
2022-08-04T04:06:04.592Z,100945.13
2022-08-04T04:09:20.739Z,100945.53
2022-08-04T04:12:28.633Z,100951.13
2022-08-04T04:15:11.724Z,100945.78
2022-08-04T04:17:58.948Z,100946.84
2022-08-04T04:20:52.234Z,100944.31
2022-08-04T04:23:31.948Z,100948.00
2022-08-04T04:26:30.723Z,100958.91
2022-08-04T04:29:07.568Z,100957.03
2022-08-04T04:31:47.444Z,100953.34
2022-08-04T04:34:27.520Z,100945.06
2022-08-04T04:37:13.903Z,100951.22
2022-08-04T04:39:53.157Z,100952.19
2022-08-04T04:42:45.386Z,100957.41
2022-08-04T04:45:32.913Z,100947.28
2022-08-04T04:48:11.157Z,100954.22
2022-08-04T04:51:07.159Z,100952.88
2022-08-04T04:53:44.322Z,100948.97
2022-08-04T04:56:18.356Z,100955.09
2022-08-04T04:58:46.119Z,100958.44
2022-08-04T05:01:35.612Z,100952.78
2022-08-04T05:04:27.334Z,100947.13
2022-08-04T05:07:18.472Z,100951.31
2022-08-04T05:10:01.788Z,100961.84
2022-08-04T05:14:35.435Z,100962.34
2022-08-04T05:15:49.052Z,100964.47
2022-08-04T05:18:22.391Z,100958.63
2022-08-04T05:20:56.590Z,100957.19
2022-08-04T05:23:27.705Z,100963.91
2022-08-04T05:25:59.689Z,100963.50
2022-08-04T05:28:30.828Z,100959.38
2022-08-04T05:31:02.390Z,100961.53
2022-08-04T05:33:35.686Z,100960.91
2022-08-04T05:36:19.138Z,100967.69
2022-08-04T05:38:54.842Z,100963.78
2022-08-04T05:41:23.951Z,100960.75
2022-08-04T05:44:02.034Z,100954.00
2022-08-04T05:46:31.951Z,100964.47
2022-08-04T05:48:59.732Z,100964.78
2022-08-04T05:51:30.929Z,100958.91
2022-08-04T05:53:59.749Z,100963.38
2022-08-04T05:56:27.973Z,100959.03
2022-08-04T05:58:57.547Z,100957.38
2022-08-04T06:01:26.727Z,100962.84
2022-08-04T06:03:56.913Z,100953.66
2022-08-04T06:06:24.817Z,100957.81
2022-08-04T06:08:57.699Z,100948.31
2022-08-04T06:11:28.083Z,100950.75
2022-08-04T06:13:59.536Z,100957.44
2022-08-04T06:16:35.778Z,100946.94
2022-08-04T06:20:03.087Z,100944.66
2022-08-04T06:21:57.771Z,100946.19
2022-08-04T06:24:30.007Z,100944.13
2022-08-04T06:26:58.563Z,100943.13
2022-08-04T06:29:34.199Z,100945.75
2022-08-04T06:32:30.085Z,100943.78
2022-08-04T06:35:03.332Z,100943.34
2022-08-04T06:37:43.359Z,100945.00
2022-08-04T06:40:29.970Z,100942.78
2022-08-04T06:43:01.222Z,100952.66
2022-08-04T06:45:30.468Z,100950.91
2022-08-04T06:47:59.331Z,100949.59
2022-08-04T06:51:27.048Z,100954.41
2022-08-04T06:53:16.642Z,100944.75
2022-08-04T06:55:48.667Z,100944.88
2022-08-04T06:58:16.728Z,100942.25
2022-08-04T07:00:46.958Z,100941.38
2022-08-04T07:03:15.630Z,100935.56
2022-08-04T07:05:44.339Z,100939.97
2022-08-04T07:08:12.894Z,100940.72
2022-08-04T07:10:41.766Z,100931.53
2022-08-04T07:13:12.362Z,100936.00
2022-08-04T07:15:44.920Z,100942.47
2022-08-04T07:18:12.876Z,100940.59
2022-08-04T07:20:43.138Z,100931.09
2022-08-04T07:23:12.904Z,100935.84
2022-08-04T07:25:59.692Z,100936.59
2022-08-04T07:28:31.615Z,100933.50
2022-08-04T07:30:59.919Z,100933.50
2022-08-04T07:33:28.640Z,100939.59
2022-08-04T07:36:05.626Z,100942.97
2022-08-04T07:38:48.693Z,100943.59
2022-08-04T07:41:39.092Z,100949.03
2022-08-04T07:44:09.282Z,100953.44
2022-08-04T07:46:37.448Z,100961.13
2022-08-04T07:49:06.401Z,100962.66
2022-08-04T07:51:35.549Z,100954.56
2022-08-04T07:54:05.226Z,100948.38
2022-08-04T07:56:34.414Z,100957.63
2022-08-04T07:59:02.626Z,100954.19
2022-08-04T08:01:32.287Z,100945.75
2022-08-04T08:04:01.937Z,100945.81
2022-08-04T08:06:34.727Z,100945.06
2022-08-04T08:09:13.250Z,100938.84
2022-08-04T08:12:36.715Z,100921.59
2022-08-04T08:14:30.593Z,100916.72
2022-08-04T08:17:02.533Z,100917.34
2022-08-04T08:19:31.004Z,100917.38
2022-08-04T08:22:00.824Z,100925.59
2022-08-04T08:24:30.681Z,100933.19
2022-08-04T08:27:00.106Z,100926.03
2022-08-04T08:29:29.547Z,100931.00
2022-08-04T08:32:02.760Z,100931.25
2022-08-04T08:34:36.967Z,100930.75
2022-08-04T08:37:13.449Z,100933.84
2022-08-04T08:39:46.022Z,100940.44
2022-08-04T08:42:41.489Z,100938.19
2022-08-04T08:45:42.629Z,100930.53
2022-08-04T08:48:31.472Z,100938.13
2022-08-04T08:51:37.849Z,100936.59
2022-08-04T08:54:29.880Z,100935.66
2022-08-04T08:57:14.309Z,100932.13
2022-08-04T08:59:55.339Z,100935.34
2022-08-04T09:03:04.608Z,100940.19
2022-08-04T09:05:51.747Z,100918.38
2022-08-04T09:08:48.541Z,100922.72
2022-08-04T09:11:22.029Z,100920.44
2022-08-04T09:13:56.423Z,100923.53
2022-08-04T09:16:35.463Z,100916.59
2022-08-04T09:19:09.662Z,100928.19
2022-08-04T09:21:52.121Z,100932.00
2022-08-04T09:24:35.504Z,100935.56
2022-08-04T09:27:15.461Z,100943.59
2022-08-04T09:29:49.057Z,100945.38
2022-08-04T09:32:27.357Z,100944.94
2022-08-04T09:35:08.404Z,100950.03
2022-08-04T09:37:46.114Z,100940.22
2022-08-04T09:40:31.192Z,100946.16
2022-08-04T09:43:57.220Z,100949.53
2022-08-04T09:46:26.539Z,100944.44
2022-08-04T09:48:59.901Z,100938.34
2022-08-04T09:51:57.933Z,100939.78
2022-08-04T09:54:33.215Z,100944.16
2022-08-04T09:57:10.618Z,100942.72
2022-08-04T09:59:47.889Z,100948.84
2022-08-04T10:02:20.223Z,100947.28
2022-08-04T10:04:50.366Z,100957.75
2022-08-04T10:07:43.802Z,100958.34
2022-08-04T10:10:37.191Z,100963.16
2022-08-04T10:13:15.457Z,100964.31
2022-08-04T10:16:12.579Z,100955.88
2022-08-04T10:18:50.835Z,100960.09
2022-08-04T10:21:27.837Z,100971.41
2022-08-04T10:24:13.579Z,100967.94
2022-08-04T10:26:53.114Z,100966.47
2022-08-04T10:29:25.770Z,100958.59
2022-08-04T10:32:04.331Z,100960.34
2022-08-04T10:34:40.764Z,100964.13
2022-08-04T10:37:20.262Z,100960.06
2022-08-04T10:40:09.110Z,100955.25
2022-08-04T10:42:43.001Z,100962.66
2022-08-04T10:45:18.150Z,100973.72
2022-08-04T10:48:01.514Z,100973.69
2022-08-04T10:50:31.355Z,100975.16
2022-08-04T10:53:21.550Z,100973.41
2022-08-04T10:56:07.353Z,100973.25
2022-08-04T10:58:47.396Z,100973.81
2022-08-04T11:02:02.110Z,100975.75
2022-08-04T11:04:30.680Z,100988.25
2022-08-04T11:07:00.568Z,100979.63
2022-08-04T11:09:29.989Z,100983.94
2022-08-04T11:12:07.760Z,100980.47
2022-08-04T11:14:40.983Z,100984.63
2022-08-04T11:17:12.848Z,101001.69
2022-08-04T11:19:53.184Z,100996.19
2022-08-04T11:22:27.234Z,101003.53
2022-08-04T11:25:02.378Z,100998.06
2022-08-04T11:27:37.091Z,101004.47
2022-08-04T11:30:08.796Z,101006.84
2022-08-04T11:32:43.787Z,101008.94
2022-08-04T11:35:18.462Z,101017.81
2022-08-04T11:37:50.210Z,101011.53
2022-08-04T11:40:23.953Z,101017.50
2022-08-04T11:42:56.338Z,101019.56
2022-08-04T11:45:32.404Z,101025.31
2022-08-04T11:48:05.007Z,101023.59
2022-08-04T11:50:41.441Z,101030.16
2022-08-04T11:53:13.046Z,101032.91
2022-08-04T11:56:07.548Z,101030.00
2022-08-04T11:58:30.574Z,101043.59
2022-08-04T12:01:07.335Z,101040.16
2022-08-04T12:03:40.736Z,101051.06
2022-08-04T12:06:18.769Z,101049.78
2022-08-04T12:09:10.387Z,101051.06
2022-08-04T12:11:55.787Z,101058.75
2022-08-04T12:14:32.577Z,101063.31
2022-08-04T12:17:02.244Z,101067.66
2022-08-04T12:19:57.923Z,101059.13
2022-08-04T12:22:31.448Z,101055.03
2022-08-04T12:25:04.340Z,101054.97
2022-08-04T12:27:36.215Z,101040.75
2022-08-04T12:30:58.445Z,101046.97
2022-08-04T12:33:00.527Z,101053.66
2022-08-04T12:35:34.848Z,101040.38
2022-08-04T12:38:07.218Z,101041.59
2022-08-04T12:40:40.373Z,101049.16
2022-08-04T12:43:12.697Z,101047.69
2022-08-04T12:45:48.704Z,101047.16
2022-08-04T12:48:21.309Z,101059.84
2022-08-04T12:50:51.374Z,101042.03
2022-08-04T12:53:31.839Z,101045.56
2022-08-04T12:56:02.388Z,101034.66
2022-08-04T12:58:42.960Z,101033.91
2022-08-04T13:02:09.427Z,101037.19
2022-08-04T13:04:06.330Z,101036.31
2022-08-04T13:06:36.884Z,101039.25
2022-08-04T13:09:10.080Z,101034.19
2022-08-04T13:11:52.192Z,101038.72
2022-08-04T13:14:27.490Z,101030.63
2022-08-04T13:16:59.488Z,101034.50
2022-08-04T13:19:28.848Z,101033.75
2022-08-04T13:22:03.361Z,101035.34
2022-08-04T13:24:56.870Z,101026.09
2022-08-04T13:27:26.740Z,101032.66
2022-08-04T13:30:08.914Z,101032.19
2022-08-04T13:32:37.506Z,101033.22
2022-08-04T13:35:09.920Z,101030.22
2022-08-04T13:37:40.467Z,101030.34
2022-08-04T13:40:13.518Z,101031.97
2022-08-04T13:42:47.753Z,101029.53
2022-08-04T13:45:19.998Z,101022.28
2022-08-04T13:47:51.585Z,101026.06
2022-08-04T13:50:23.480Z,101025.31
2022-08-04T13:52:54.889Z,101034.78
2022-08-04T13:55:31.089Z,101032.03
2022-08-04T13:58:03.807Z,101030.13
2022-08-04T14:00:45.218Z,101029.28
2022-08-04T14:03:24.724Z,101028.97
2022-08-04T14:06:16.714Z,101025.94
2022-08-04T14:08:53.825Z,101024.03
2022-08-04T14:12:10.461Z,101024.91
2022-08-04T14:14:29.383Z,101021.69
2022-08-04T14:17:04.135Z,101024.47
2022-08-04T14:19:49.995Z,101025.34
2022-08-04T14:22:33.607Z,101032.28
2022-08-04T14:25:04.162Z,101030.25
2022-08-04T14:27:43.248Z,101032.59
2022-08-04T14:30:23.494Z,101030.09
2022-08-04T14:32:57.731Z,101026.44
2022-08-04T14:35:26.443Z,101034.69
2022-08-04T14:38:08.479Z,101020.47
2022-08-04T14:40:39.141Z,101017.72
2022-08-04T14:43:09.687Z,101019.31
2022-08-04T14:45:39.617Z,101016.41
2022-08-04T14:48:23.328Z,101019.59
2022-08-04T14:50:52.530Z,101018.00
2022-08-04T14:53:22.421Z,101013.91
2022-08-04T14:55:51.897Z,101012.59
2022-08-04T14:58:35.854Z,101016.44
2022-08-04T15:01:12.495Z,101006.66
2022-08-04T15:03:49.830Z,101005.47
2022-08-04T15:06:23.275Z,101003.31
2022-08-04T15:08:52.856Z,101010.69
2022-08-04T15:11:23.439Z,101021.63
2022-08-04T15:13:53.362Z,101025.94
2022-08-04T15:16:21.667Z,101027.44
2022-08-04T15:18:49.921Z,101014.06
2022-08-04T15:21:18.638Z,101034.66
2022-08-04T15:23:46.427Z,101043.75
2022-08-04T15:26:17.156Z,101052.78
2022-08-04T15:28:51.320Z,101036.31
2022-08-04T15:32:07.724Z,101038.06
2022-08-04T15:34:11.782Z,101046.72
2022-08-04T15:36:45.846Z,101047.41
2022-08-04T15:39:35.870Z,101051.38
2022-08-04T15:42:20.443Z,101057.97
2022-08-04T15:45:17.646Z,101058.16
2022-08-04T15:48:15.869Z,101053.78
2022-08-04T15:51:03.761Z,101045.84
2022-08-04T15:54:02.322Z,101055.00
2022-08-04T15:56:48.398Z,101050.41
2022-08-04T16:00:11.211Z,101059.34
2022-08-04T16:02:46.973Z,101050.47
2022-08-04T16:05:39.527Z,101052.94
2022-08-04T16:08:20.458Z,101060.56
2022-08-04T16:10:51.760Z,101060.31
2022-08-04T16:13:21.381Z,101062.38
2022-08-04T16:15:51.977Z,101056.31
2022-08-04T16:18:39.770Z,101059.69
2022-08-04T16:21:21.964Z,101048.00
2022-08-04T16:24:07.672Z,101042.06
2022-08-04T16:26:53.738Z,101051.06
2022-08-04T16:29:32.248Z,101037.81
2022-08-04T16:32:11.848Z,101045.50
2022-08-04T16:34:49.661Z,101036.75
2022-08-04T16:37:25.948Z,101025.00
2022-08-04T16:40:33.341Z,101017.00
2022-08-04T16:43:07.973Z,101013.03
2022-08-04T16:45:48.048Z,101014.97
2022-08-04T16:48:17.162Z,101019.66
2022-08-04T16:50:50.684Z,101023.66
2022-08-04T16:53:51.613Z,101020.66
2022-08-04T16:56:11.224Z,101027.66
2022-08-04T16:58:54.016Z,101032.16
2022-08-04T17:01:33.257Z,101034.16
2022-08-04T17:04:06.044Z,101028.75
2022-08-04T17:06:36.287Z,101038.16
2022-08-04T17:09:08.324Z,101037.34
2022-08-04T17:11:36.353Z,101036.34
2022-08-04T17:14:06.087Z,101020.75
2022-08-04T17:16:36.148Z,101034.13
2022-08-04T17:19:06.194Z,101030.25
2022-08-04T17:21:36.266Z,101024.75
2022-08-04T17:24:14.514Z,101024.41
2022-08-04T17:26:53.974Z,101021.16
2022-08-04T17:29:43.015Z,101024.69
2022-08-04T17:32:15.960Z,101026.78
2022-08-04T17:34:48.584Z,101029.28
2022-08-04T17:40:11.419Z,101027.31
2022-08-04T17:42:41.458Z,101035.53
2022-08-04T17:45:39.864Z,101035.41
2022-08-04T17:47:58.992Z,101036.66
2022-08-04T17:50:27.501Z,101037.41
2022-08-04T17:53:12.316Z,101046.75
2022-08-04T17:58:32.582Z,101054.03
2022-08-04T18:03:53.458Z,101046.91
2022-08-04T18:06:25.710Z,101045.63
2022-08-04T18:08:58.111Z,101049.56
2022-08-04T18:11:41.510Z,101050.56
2022-08-04T18:14:10.723Z,101044.81
2022-08-04T18:16:44.608Z,101053.03
2022-08-04T18:19:14.044Z,101062.13
2022-08-04T18:21:46.080Z,101052.66
2022-08-04T18:24:34.214Z,101056.75
2022-08-04T18:27:19.018Z,101069.09
2022-08-04T18:30:14.556Z,101068.44
2022-08-04T18:32:35.611Z,101076.69
2022-08-04T18:35:07.247Z,101071.53
2022-08-04T18:38:05.769Z,101067.03
2022-08-04T18:40:30.018Z,101065.13
2022-08-04T18:43:04.595Z,101062.63
2022-08-04T18:45:34.535Z,101061.97
2022-08-04T18:48:04.030Z,101062.81
2022-08-04T18:51:09.715Z,101064.94
2022-08-04T18:53:35.685Z,101059.59
2022-08-04T18:56:06.070Z,101066.06
2022-08-04T18:58:35.624Z,101067.94
2022-08-04T19:01:13.597Z,101078.13
2022-08-04T19:03:44.119Z,101077.63
2022-08-04T19:06:12.584Z,101086.19
2022-08-04T19:08:42.445Z,101091.66
2022-08-04T19:11:19.450Z,101085.44
2022-08-04T19:14:00.131Z,101089.50
2022-08-04T19:16:31.358Z,101091.50
2022-08-04T19:19:00.312Z,101099.09
2022-08-04T19:21:59.618Z,101095.59
2022-08-04T19:24:31.752Z,101099.44
2022-08-04T19:27:06.998Z,101108.75
2022-08-04T19:29:41.227Z,101107.44
2022-08-04T19:32:14.734Z,101110.53
2022-08-04T19:34:46.002Z,101112.81
2022-08-04T19:37:57.921Z,101115.81
2022-08-04T19:40:06.207Z,101112.09
2022-08-04T19:42:34.823Z,101114.81
2022-08-04T19:45:05.124Z,101121.41
2022-08-04T19:48:17.796Z,101124.25
2022-08-04T19:50:23.654Z,101128.44
2022-08-04T19:52:52.557Z,101128.97
2022-08-04T19:55:22.213Z,101136.34
2022-08-04T19:57:50.824Z,101133.81
2022-08-04T20:00:33.136Z,101122.19
2022-08-04T20:03:02.629Z,101131.84
2022-08-04T20:05:52.576Z,101127.72
2022-08-04T20:08:18.852Z,101138.56
2022-08-04T20:10:51.544Z,101137.03
2022-08-04T20:13:20.265Z,101143.94
2022-08-04T20:15:57.530Z,101150.81
2022-08-04T20:18:55.493Z,101160.31
2022-08-04T20:21:36.654Z,101168.16
2022-08-04T20:24:39.236Z,101176.09
2022-08-04T20:27:07.801Z,101174.97
2022-08-04T20:29:40.245Z,101179.53
2022-08-04T20:32:10.462Z,101191.16
2022-08-04T20:34:40.154Z,101186.22
2022-08-04T20:37:10.104Z,101193.75
2022-08-04T20:39:39.129Z,101196.72
2022-08-04T20:42:07.515Z,101198.28
2022-08-04T20:44:42.195Z,101186.06
2022-08-04T20:47:15.443Z,101203.88
2022-08-04T20:49:43.346Z,101201.31
2022-08-04T20:52:18.127Z,101207.16
2022-08-04T20:54:49.219Z,101209.19
2022-08-04T20:57:48.131Z,101222.06
2022-08-04T21:00:13.257Z,101219.75
2022-08-04T21:02:42.723Z,101225.41
2022-08-04T21:05:12.691Z,101234.56
2022-08-04T21:07:43.764Z,101233.75
2022-08-04T21:10:11.983Z,101242.25
2022-08-04T21:12:39.917Z,101246.47
2022-08-04T21:15:13.511Z,101258.06
2022-08-04T21:20:32.453Z,101281.06
2022-08-04T21:23:03.498Z,101280.69
2022-08-04T21:25:32.266Z,101281.94
2022-08-04T21:28:10.948Z,101287.44
2022-08-04T21:30:52.833Z,101288.94
2022-08-04T21:33:44.717Z,101297.78
2022-08-04T21:36:13.869Z,101302.97
2022-08-04T21:38:41.992Z,101300.59
2022-08-04T21:41:24.167Z,101285.97
2022-08-04T21:43:53.436Z,101283.84
2022-08-04T21:46:22.023Z,101289.31
2022-08-04T21:48:51.391Z,101296.69
2022-08-04T21:51:57.478Z,101301.09
2022-08-04T21:56:58.145Z,101305.53
2022-08-04T21:59:30.527Z,101307.63
2022-08-04T22:02:00.611Z,101321.97
2022-08-04T22:04:31.094Z,101357.56
2022-08-04T22:07:03.000Z,101405.66
2022-08-04T22:09:38.574Z,101418.84
2022-08-04T22:12:10.388Z,101360.66
2022-08-04T22:14:40.075Z,101325.34
2022-08-04T22:17:13.572Z,101342.13
2022-08-04T22:19:56.336Z,101367.53
2022-08-04T22:22:27.027Z,101387.41
2022-08-04T22:25:01.372Z,101385.69
2022-08-04T22:27:47.617Z,101380.50
2022-08-04T22:30:17.775Z,101336.66
2022-08-04T22:32:47.076Z,101285.81
2022-08-04T22:35:36.545Z,101275.50
2022-08-04T22:38:23.954Z,101256.53
2022-08-04T22:40:58.174Z,101246.34
2022-08-04T22:43:32.034Z,101237.91
2022-08-04T22:46:03.657Z,101228.81
2022-08-04T22:48:32.470Z,101194.13
2022-08-04T22:51:02.649Z,101173.94
2022-08-04T22:53:30.742Z,101140.47
2022-08-04T22:56:09.184Z,101127.41
2022-08-04T22:58:45.172Z,101129.75
2022-08-04T23:01:18.586Z,101142.81
2022-08-04T23:03:51.199Z,101156.63
2022-08-04T23:06:28.670Z,101159.31
2022-08-04T23:08:56.808Z,101144.59
2022-08-04T23:11:24.962Z,101154.09
2022-08-04T23:14:02.891Z,101147.84
2022-08-04T23:16:31.236Z,101144.66
2022-08-04T23:21:40.633Z,101154.19
2022-08-04T23:24:09.520Z,101146.38
2022-08-04T23:26:37.345Z,101146.53
2022-08-04T23:29:05.199Z,101144.75
2022-08-04T23:31:41.296Z,101146.81
2022-08-04T23:34:20.763Z,101153.19
2022-08-04T23:36:51.316Z,101156.56
2022-08-04T23:39:19.127Z,101157.78
2022-08-04T23:41:51.404Z,101152.41
2022-08-04T23:44:25.193Z,101156.81
2022-08-04T23:47:02.558Z,101153.28
2022-08-04T23:49:44.515Z,101146.03
2022-08-04T23:52:28.319Z,101130.97
2022-08-04T23:54:59.033Z,101133.50
2022-08-04T23:57:31.266Z,101146.84
